[source: ADDS]
METAR
EDVE 170120Z AUTO 22004KT 190V250 9999 // FEW068/// 08/07 Q1001

TAF EDVE 161700Z 1618/1621 25004KT 9999 FEW040 PROB30 TEMPO 1618/1620 SHRA BKN020CB EDDV 170120Z 28001KT CAVOK 08/07 Q1000

TAF EDDV 162300Z 1700/1724 22002KT 9999 FEW035 PROB30 TEMPO 1702/1705 4500 BR BECMG 1707/1709 23009KT TEMPO 1709/1721 SHRA SCT014 BKN020CB PROB30 TEMPO 1710/1719 4000 TSRA BKN014CB BECMG 1717/1719 27004KT PROB30 TEMPO 1722/1724 3000 BR BKN004 ETHS 170020Z 18001KT 9999 SCT050 BKN140 08/08 Q1000 BLU

ETHC 170020Z AUTO 24002KT 0250 // ////// 09/09 Q1000 ///

TAF EDVK 161742Z 1618/1703 18011KT 9999 SCT030 TEMPO 1618/1703 SHRA BKN030CB PROB30 TEMPO 1618/1622 20015G25KT 4000 TSRA
TAF
TAF EDVE 161700Z 1618/1621 25004KT 9999 FEW040 PROB30 TEMPO 1618/1620 SHRA BKN020CB

TAF EDDV 162300Z 1700/1724 22002KT 9999 FEW035 PROB30 TEMPO 1702/1705 4500 BR BECMG 1707/1709 23009KT TEMPO 1709/1721 SHRA SCT014 BKN020CB PROB30 TEMPO 1710/1719 4000 TSRA BKN014CB BECMG 1717/1719 27004KT PROB30 TEMPO 1722/1724 3000 BR BKN004

TAF EDVK 161742Z 1618/1703 18011KT 9999 SCT030 TEMPO 1618/1703 SHRA BKN030CB PROB30 TEMPO 1618/1622 20015G25KT 4000 TSRA

SR / SS: 03:19 / 19:09 UTC (EDVE 2021-05-17)
Marek hat seinen ersten Alleinflug absolviert! Herzlichen Glückwunsch und weiterhin Happy Landings! +++ Wir heißen Simon als neuen Flugschüler willkommen und wünschen eine erfolgreiche Ausbildung! +++ David hat seine Prüfung für die Instrumentenflugberechtigung bestanden! Gratulation und weiterhin Happy Landings! +++ Julian hat seine praktische PPL(A)-Prüfung bestanden! Herzlichen Glückwunsch und weiterhin Happy Landings! +++ Willkommen bei der FFG, Daniel! Viel Erfolg bei der Ausbildung! +++ Lothar hat seine praktische PPL(A)-Prüfung bestanden! Gratulation und weiterhin Happy Landings! +++ Wir begrüßen Christian als neues Mitglied der FFG! Viel Spass und always Happy Landings! +++ Wir heißen Thiago als neuen Flugschüler willkommen und wünschen eine erfolgreiche Ausbildung! +++ Wir gratulieren Patrick und Paul zu ihrem ersten Soloflug! Herzlichen Glückwunsch und always Happy Landings!

Webcam Wetter am Flughafen Braunschweig-Wolfsburg Richtung Norden. Das Bild wird alle 60 Sekunden aktualisiert.

Neues Bild in 60 Sekunden

Letztes NOTAM EDVE
von 20.05.2021 1230Z bis 20.05.2021 1330Z
AD CLSD DUE TO LOCAL CEREMONY.

Letztes NOTAM EDCB
von 28.04.2021 0819Z bis 31.05.2021 2159Z
AD HOURS OF OPS: DAILY 0700-1600. OTHER TIMES PPR.

Letztes NOTAM EDBC
von 22.04.2021 1055Z bis 22.07.2021 2359Z
AD CLSD.

Letztes NOTAM EDVM
von 06.03.2021 1032Z bis 04.06.2021 2359Z
CRANE 700M SW ARP, ELEV 415FT/120FT AGL. NOT MARKED.

Letztes NOTAM EDDV
von 18.05.2021 0800Z bis 20.05.2021 1000Z
BRUENKENDORF DVOR/DME BKD 117.7MHZ/CH124X ON MAINT, DO NOT USE, FALSE INDICATIONS POSS.

Letztes NOTAM EDVK
von 04.05.2021 1257Z bis 20.05.2021 0001Z
AERODROME [US DOD E-IPL ONLY] RNAV (GPS) RWY 27 NOT AUTHORIZED